sensor_id;sensor_type;location;lat;lon;timestamp;P1;durP1;ratioP1;P2;durP2;ratioP2
5847;SDS011;8756;49.29324300;8.70599800;2023-04-03T00:01:36;12.13;;;5.37;;
5847;SDS011;8756;49.29324300;8.70599800;2023-04-03T00:04:03;11.80;;;6.30;;
5847;SDS011;8756;49.29324300;8.70599800;2023-04-03T00:06:30;11.77;;;5.50;;
5847;SDS011;8756;49.29324300;8.70599800;2023-04-03T00:08:57;13.43;;;5.57;;
5847;SDS011;8756;49.29324300;8.70599800;2023-04-03T00:11:23;12.70;;;5.90;;
5847;SDS011;8756;49.29324300;8.70599800;2023-04-03T00:13:48;13.27;;;6.07;;
5847;SDS011;8756;49.29324300;8.70599800;2023-04-03T00:16:15;12.87;;;6.10;;
5847;SDS011;8756;49.29324300;8.70599800;2023-04-03T00:18:40;11.23;;;5.40;;
5847;SDS011;8756;49.29324300;8.70599800;2023-04-03T00:21:06;13.73;;;5.67;;
5847;SDS011;8756;49.29324300;8.70599800;2023-04-03T00:23:34;12.37;;;5.23;;
5847;SDS011;8756;49.29324300;8.70599800;2023-04-03T00:26:00;11.73;;;4.97;;
5847;SDS011;8756;49.29324300;8.70599800;2023-04-03T00:28:29;12.03;;;5.23;;
5847;SDS011;8756;49.29324300;8.70599800;2023-04-03T00:30:55;11.73;;;5.87;;
5847;SDS011;8756;49.29324300;8.70599800;2023-04-03T00:33:20;11.40;;;5.53;;
5847;SDS011;8756;49.29324300;8.70599800;2023-04-03T00:35:49;11.03;;;4.90;;
5847;SDS011;8756;49.29324300;8.70599800;2023-04-03T00:38:16;11.90;;;5.17;;
5847;SDS011;8756;49.29324300;8.70599800;2023-04-03T00:40:43;11.80;;;5.30;;
5847;SDS011;8756;49.29324300;8.70599800;2023-04-03T00:43:13;11.83;;;5.90;;
5847;SDS011;8756;49.29324300;8.70599800;2023-04-03T00:45:52;13.10;;;5.90;;
5847;SDS011;8756;49.29324300;8.70599800;2023-04-03T00:48:21;11.00;;;5.30;;
5847;SDS011;8756;49.29324300;8.70599800;2023-04-03T00:51:13;11.10;;;5.47;;
5847;SDS011;8756;49.29324300;8.70599800;2023-04-03T00:53:46;14.20;;;5.40;;
5847;SDS011;8756;49.29324300;8.70599800;2023-04-03T00:56:16;12.27;;;5.57;;
5847;SDS011;8756;49.29324300;8.70599800;2023-04-03T00:58:48;10.30;;;4.53;;
5847;SDS011;8756;49.29324300;8.70599800;2023-04-03T01:01:36;12.37;;;5.50;;
5847;SDS011;8756;49.29324300;8.70599800;2023-04-03T01:04:03;11.47;;;4.83;;
5847;SDS011;8756;49.29324300;8.70599800;2023-04-03T01:06:32;10.77;;;5.73;;
5847;SDS011;8756;49.29324300;8.70599800;2023-04-03T01:09:02;11.50;;;4.70;;
5847;SDS011;8756;49.29324300;8.70599800;2023-04-03T01:11:29;12.20;;;5.30;;
5847;SDS011;8756;49.29324300;8.70599800;2023-04-03T01:13:55;12.23;;;5.43;;
5847;SDS011;8756;49.29324300;8.70599800;2023-04-03T01:16:21;16.23;;;5.77;;
5847;SDS011;8756;49.29324300;8.70599800;2023-04-03T01:18:47;12.27;;;5.70;;
5847;SDS011;8756;49.29324300;8.70599800;2023-04-03T01:27:01;11.60;;;5.97;;
5847;SDS011;8756;49.29324300;8.70599800;2023-04-03T01:29:29;11.73;;;6.43;;
5847;SDS011;8756;49.29324300;8.70599800;2023-04-03T01:31:59;10.97;;;5.43;;
5847;SDS011;8756;49.29324300;8.70599800;2023-04-03T01:34:27;18.00;;;5.97;;
5847;SDS011;8756;49.29324300;8.70599800;2023-04-03T01:36:55;12.90;;;5.90;;
5847;SDS011;8756;49.29324300;8.70599800;2023-04-03T01:39:21;11.80;;;6.13;;
5847;SDS011;8756;49.29324300;8.70599800;2023-04-03T01:41:47;11.10;;;5.37;;
5847;SDS011;8756;49.29324300;8.70599800;2023-04-03T01:44:14;11.27;;;5.40;;
5847;SDS011;8756;49.29324300;8.70599800;2023-04-03T01:46:40;12.43;;;5.57;;
5847;SDS011;8756;49.29324300;8.70599800;2023-04-03T01:49:07;13.50;;;5.40;;
5847;SDS011;8756;49.29324300;8.70599800;2023-04-03T01:51:33;12.10;;;5.70;;
5847;SDS011;8756;49.29324300;8.70599800;2023-04-03T01:53:58;12.83;;;6.57;;
5847;SDS011;8756;49.29324300;8.70599800;2023-04-03T01:56:24;12.80;;;6.33;;
5847;SDS011;8756;49.29324300;8.70599800;2023-04-03T01:58:50;13.00;;;6.00;;
5847;SDS011;8756;49.29324300;8.70599800;2023-04-03T02:01:16;15.43;;;5.13;;
5847;SDS011;8756;49.29324300;8.70599800;2023-04-03T02:03:41;11.10;;;5.80;;
5847;SDS011;8756;49.29324300;8.70599800;2023-04-03T02:06:07;12.00;;;4.83;;
5847;SDS011;8756;49.29324300;8.70599800;2023-04-03T02:08:33;11.47;;;5.27;;
5847;SDS011;8756;49.29324300;8.70599800;2023-04-03T02:10:58;11.40;;;5.83;;
5847;SDS011;8756;49.29324300;8.70599800;2023-04-03T02:13:24;12.23;;;6.03;;
5847;SDS011;8756;49.29324300;8.70599800;2023-04-03T02:15:50;14.10;;;5.80;;
5847;SDS011;8756;49.29324300;8.70599800;2023-04-03T02:18:16;11.73;;;6.20;;
5847;SDS011;8756;49.29324300;8.70599800;2023-04-03T02:20:42;15.37;;;5.33;;
5847;SDS011;8756;49.29324300;8.70599800;2023-04-03T02:23:08;12.97;;;6.00;;
5847;SDS011;8756;49.29324300;8.70599800;2023-04-03T02:25:34;12.87;;;5.47;;
5847;SDS011;8756;49.29324300;8.70599800;2023-04-03T02:28:00;12.60;;;5.70;;
5847;SDS011;8756;49.29324300;8.70599800;2023-04-03T02:30:26;13.60;;;4.73;;
5847;SDS011;8756;49.29324300;8.70599800;2023-04-03T02:32:51;13.80;;;5.50;;
5847;SDS011;8756;49.29324300;8.70599800;2023-04-03T02:35:17;12.87;;;5.83;;
5847;SDS011;8756;49.29324300;8.70599800;2023-04-03T02:37:43;14.67;;;6.10;;
5847;SDS011;8756;49.29324300;8.70599800;2023-04-03T02:40:09;10.30;;;4.63;;
5847;SDS011;8756;49.29324300;8.70599800;2023-04-03T02:42:36;14.20;;;5.80;;
5847;SDS011;8756;49.29324300;8.70599800;2023-04-03T02:45:02;11.50;;;6.07;;
5847;SDS011;8756;49.29324300;8.70599800;2023-04-03T02:47:28;13.00;;;5.13;;
5847;SDS011;8756;49.29324300;8.70599800;2023-04-03T02:49:54;12.20;;;5.33;;
5847;SDS011;8756;49.29324300;8.70599800;2023-04-03T02:52:20;13.20;;;5.27;;
5847;SDS011;8756;49.29324300;8.70599800;2023-04-03T02:54:45;12.10;;;5.40;;
5847;SDS011;8756;49.29324300;8.70599800;2023-04-03T02:57:11;12.40;;;6.23;;
5847;SDS011;8756;49.29324300;8.70599800;2023-04-03T02:59:37;11.37;;;4.63;;
5847;SDS011;8756;49.29324300;8.70599800;2023-04-03T03:02:05;11.53;;;5.27;;
5847;SDS011;8756;49.29324300;8.70599800;2023-04-03T03:04:35;12.70;;;6.07;;
5847;SDS011;8756;49.29324300;8.70599800;2023-04-03T03:07:01;12.67;;;5.50;;
5847;SDS011;8756;49.29324300;8.70599800;2023-04-03T03:09:28;11.37;;;5.00;;
5847;SDS011;8756;49.29324300;8.70599800;2023-04-03T03:11:54;11.10;;;5.63;;
5847;SDS011;8756;49.29324300;8.70599800;2023-04-03T03:14:21;13.00;;;4.80;;
5847;SDS011;8756;49.29324300;8.70599800;2023-04-03T03:16:47;10.30;;;5.47;;
5847;SDS011;8756;49.29324300;8.70599800;2023-04-03T03:19:12;12.57;;;5.33;;
5847;SDS011;8756;49.29324300;8.70599800;2023-04-03T03:21:38;12.00;;;5.13;;
5847;SDS011;8756;49.29324300;8.70599800;2023-04-03T03:24:04;11.33;;;5.37;;
5847;SDS011;8756;49.29324300;8.70599800;2023-04-03T03:26:30;12.57;;;5.23;;
5847;SDS011;8756;49.29324300;8.70599800;2023-04-03T03:28:56;13.40;;;6.10;;
5847;SDS011;8756;49.29324300;8.70599800;2023-04-03T03:31:21;10.87;;;4.60;;
5847;SDS011;8756;49.29324300;8.70599800;2023-04-03T03:33:47;10.23;;;4.53;;
5847;SDS011;8756;49.29324300;8.70599800;2023-04-03T03:36:13;12.97;;;5.83;;
5847;SDS011;8756;49.29324300;8.70599800;2023-04-03T03:38:38;12.20;;;5.20;;
5847;SDS011;8756;49.29324300;8.70599800;2023-04-03T03:41:04;12.73;;;5.13;;
5847;SDS011;8756;49.29324300;8.70599800;2023-04-03T03:43:30;10.80;;;4.87;;
5847;SDS011;8756;49.29324300;8.70599800;2023-04-03T03:45:56;12.93;;;5.70;;
5847;SDS011;8756;49.29324300;8.70599800;2023-04-03T03:48:21;11.20;;;4.83;;
5847;SDS011;8756;49.29324300;8.70599800;2023-04-03T03:50:47;11.70;;;5.30;;
5847;SDS011;8756;49.29324300;8.70599800;2023-04-03T03:53:14;11.10;;;4.97;;
5847;SDS011;8756;49.29324300;8.70599800;2023-04-03T03:55:40;12.87;;;5.60;;
5847;SDS011;8756;49.29324300;8.70599800;2023-04-03T03:58:06;11.80;;;5.23;;
5847;SDS011;8756;49.29324300;8.70599800;2023-04-03T04:00:32;11.70;;;5.13;;
5847;SDS011;8756;49.29324300;8.70599800;2023-04-03T04:02:57;11.47;;;5.50;;
5847;SDS011;8756;49.29324300;8.70599800;2023-04-03T04:05:23;11.40;;;5.77;;
5847;SDS011;8756;49.29324300;8.70599800;2023-04-03T04:07:49;11.80;;;5.67;;
5847;SDS011;8756;49.29324300;8.70599800;2023-04-03T04:10:14;13.43;;;5.53;;
5847;SDS011;8756;49.29324300;8.70599800;2023-04-03T04:12:40;11.30;;;4.97;;
5847;SDS011;8756;49.29324300;8.70599800;2023-04-03T04:15:06;10.73;;;5.00;;
5847;SDS011;8756;49.29324300;8.70599800;2023-04-03T04:17:33;12.13;;;6.23;;
5847;SDS011;8756;49.29324300;8.70599800;2023-04-03T04:20:00;11.77;;;5.23;;
5847;SDS011;8756;49.29324300;8.70599800;2023-04-03T04:22:27;11.73;;;5.03;;
5847;SDS011;8756;49.29324300;8.70599800;2023-04-03T04:24:53;10.80;;;6.00;;
5847;SDS011;8756;49.29324300;8.70599800;2023-04-03T04:27:19;12.07;;;5.17;;
5847;SDS011;8756;49.29324300;8.70599800;2023-04-03T04:29:44;11.07;;;5.90;;
5847;SDS011;8756;49.29324300;8.70599800;2023-04-03T04:32:10;11.33;;;5.70;;
5847;SDS011;8756;49.29324300;8.70599800;2023-04-03T04:34:36;11.27;;;5.83;;
5847;SDS011;8756;49.29324300;8.70599800;2023-04-03T04:37:02;11.20;;;5.40;;
5847;SDS011;8756;49.29324300;8.70599800;2023-04-03T04:39:28;12.73;;;5.90;;
5847;SDS011;8756;49.29324300;8.70599800;2023-04-03T04:41:53;11.63;;;5.63;;
5847;SDS011;8756;49.29324300;8.70599800;2023-04-03T04:44:19;11.77;;;5.33;;
5847;SDS011;8756;49.29324300;8.70599800;2023-04-03T04:46:45;11.93;;;5.90;;
5847;SDS011;8756;49.29324300;8.70599800;2023-04-03T04:49:11;11.17;;;5.77;;
5847;SDS011;8756;49.29324300;8.70599800;2023-04-03T04:51:36;11.63;;;5.40;;
5847;SDS011;8756;49.29324300;8.70599800;2023-04-03T04:54:02;13.67;;;6.03;;
5847;SDS011;8756;49.29324300;8.70599800;2023-04-03T04:56:28;11.67;;;4.63;;
5847;SDS011;8756;49.29324300;8.70599800;2023-04-03T04:58:53;11.23;;;5.07;;
5847;SDS011;8756;49.29324300;8.70599800;2023-04-03T05:01:19;12.20;;;5.87;;
5847;SDS011;8756;49.29324300;8.70599800;2023-04-03T05:03:45;12.37;;;5.30;;
5847;SDS011;8756;49.29324300;8.70599800;2023-04-03T05:06:12;11.40;;;5.73;;
5847;SDS011;8756;49.29324300;8.70599800;2023-04-03T05:08:38;13.73;;;5.67;;
5847;SDS011;8756;49.29324300;8.70599800;2023-04-03T05:11:03;13.07;;;5.80;;
5847;SDS011;8756;49.29324300;8.70599800;2023-04-03T05:13:29;12.07;;;6.23;;
5847;SDS011;8756;49.29324300;8.70599800;2023-04-03T05:15:55;12.00;;;5.47;;
5847;SDS011;8756;49.29324300;8.70599800;2023-04-03T05:18:21;11.30;;;6.17;;
5847;SDS011;8756;49.29324300;8.70599800;2023-04-03T05:20:48;11.57;;;5.07;;
5847;SDS011;8756;49.29324300;8.70599800;2023-04-03T05:23:15;13.83;;;6.00;;
5847;SDS011;8756;49.29324300;8.70599800;2023-04-03T05:25:41;13.87;;;6.17;;
5847;SDS011;8756;49.29324300;8.70599800;2023-04-03T05:28:08;14.90;;;6.53;;
5847;SDS011;8756;49.29324300;8.70599800;2023-04-03T05:30:34;12.40;;;5.57;;
5847;SDS011;8756;49.29324300;8.70599800;2023-04-03T05:33:03;11.43;;;5.93;;
5847;SDS011;8756;49.29324300;8.70599800;2023-04-03T05:35:28;12.00;;;6.20;;
5847;SDS011;8756;49.29324300;8.70599800;2023-04-03T05:37:54;13.33;;;6.57;;
5847;SDS011;8756;49.29324300;8.70599800;2023-04-03T05:40:21;12.60;;;6.60;;
5847;SDS011;8756;49.29324300;8.70599800;2023-04-03T05:42:46;11.27;;;5.87;;
5847;SDS011;8756;49.29324300;8.70599800;2023-04-03T05:45:12;11.37;;;6.50;;
5847;SDS011;8756;49.29324300;8.70599800;2023-04-03T05:47:38;12.37;;;6.13;;
5847;SDS011;8756;49.29324300;8.70599800;2023-04-03T05:50:03;12.97;;;5.93;;
5847;SDS011;8756;49.29324300;8.70599800;2023-04-03T05:52:31;14.40;;;5.77;;
5847;SDS011;8756;49.29324300;8.70599800;2023-04-03T05:55:03;12.47;;;6.03;;
5847;SDS011;8756;49.29324300;8.70599800;2023-04-03T05:57:30;12.33;;;5.50;;
5847;SDS011;8756;49.29324300;8.70599800;2023-04-03T05:59:56;10.97;;;5.90;;
5847;SDS011;8756;49.29324300;8.70599800;2023-04-03T06:02:22;11.83;;;6.03;;
5847;SDS011;8756;49.29324300;8.70599800;2023-04-03T06:04:49;12.80;;;5.87;;
5847;SDS011;8756;49.29324300;8.70599800;2023-04-03T06:07:20;14.83;;;6.00;;
5847;SDS011;8756;49.29324300;8.70599800;2023-04-03T06:09:48;13.87;;;6.63;;
5847;SDS011;8756;49.29324300;8.70599800;2023-04-03T06:12:16;16.30;;;6.40;;
5847;SDS011;8756;49.29324300;8.70599800;2023-04-03T06:14:42;14.37;;;6.40;;
5847;SDS011;8756;49.29324300;8.70599800;2023-04-03T06:17:07;12.90;;;6.13;;
5847;SDS011;8756;49.29324300;8.70599800;2023-04-03T06:19:34;13.10;;;7.37;;
5847;SDS011;8756;49.29324300;8.70599800;2023-04-03T06:22:01;11.40;;;5.23;;
5847;SDS011;8756;49.29324300;8.70599800;2023-04-03T06:24:28;14.73;;;7.20;;
5847;SDS011;8756;49.29324300;8.70599800;2023-04-03T06:26:54;13.00;;;6.43;;
5847;SDS011;8756;49.29324300;8.70599800;2023-04-03T06:29:20;14.53;;;6.00;;
5847;SDS011;8756;49.29324300;8.70599800;2023-04-03T06:31:47;14.90;;;5.60;;
5847;SDS011;8756;49.29324300;8.70599800;2023-04-03T06:34:14;12.10;;;5.57;;
5847;SDS011;8756;49.29324300;8.70599800;2023-04-03T06:36:40;13.57;;;6.57;;
5847;SDS011;8756;49.29324300;8.70599800;2023-04-03T06:39:07;16.27;;;7.50;;
5847;SDS011;8756;49.29324300;8.70599800;2023-04-03T06:41:34;13.27;;;7.03;;
5847;SDS011;8756;49.29324300;8.70599800;2023-04-03T06:44:00;13.50;;;6.67;;
5847;SDS011;8756;49.29324300;8.70599800;2023-04-03T06:46:26;16.20;;;7.50;;
5847;SDS011;8756;49.29324300;8.70599800;2023-04-03T06:48:52;12.20;;;6.27;;
5847;SDS011;8756;49.29324300;8.70599800;2023-04-03T06:51:23;15.60;;;7.83;;
5847;SDS011;8756;49.29324300;8.70599800;2023-04-03T06:53:54;13.50;;;7.00;;
5847;SDS011;8756;49.29324300;8.70599800;2023-04-03T06:56:22;14.50;;;5.50;;
5847;SDS011;8756;49.29324300;8.70599800;2023-04-03T06:58:50;16.67;;;5.73;;
5847;SDS011;8756;49.29324300;8.70599800;2023-04-03T07:01:17;13.93;;;5.37;;
5847;SDS011;8756;49.29324300;8.70599800;2023-04-03T07:03:46;14.43;;;6.13;;
5847;SDS011;8756;49.29324300;8.70599800;2023-04-03T07:06:14;11.90;;;6.03;;
5847;SDS011;8756;49.29324300;8.70599800;2023-04-03T07:08:41;12.30;;;5.30;;
5847;SDS011;8756;49.29324300;8.70599800;2023-04-03T07:11:07;14.00;;;5.53;;
5847;SDS011;8756;49.29324300;8.70599800;2023-04-03T07:13:34;12.37;;;6.20;;
5847;SDS011;8756;49.29324300;8.70599800;2023-04-03T07:16:00;12.70;;;5.07;;
5847;SDS011;8756;49.29324300;8.70599800;2023-04-03T07:18:27;16.70;;;6.60;;
5847;SDS011;8756;49.29324300;8.70599800;2023-04-03T07:20:52;12.03;;;6.10;;
5847;SDS011;8756;49.29324300;8.70599800;2023-04-03T07:23:18;11.80;;;5.43;;
5847;SDS011;8756;49.29324300;8.70599800;2023-04-03T07:25:45;14.83;;;5.60;;
5847;SDS011;8756;49.29324300;8.70599800;2023-04-03T07:28:12;13.70;;;5.57;;
5847;SDS011;8756;49.29324300;8.70599800;2023-04-03T07:30:51;17.00;;;6.07;;
5847;SDS011;8756;49.29324300;8.70599800;2023-04-03T07:33:19;21.70;;;6.50;;
5847;SDS011;8756;49.29324300;8.70599800;2023-04-03T07:35:47;12.17;;;6.17;;
5847;SDS011;8756;49.29324300;8.70599800;2023-04-03T07:38:13;12.00;;;5.53;;
5847;SDS011;8756;49.29324300;8.70599800;2023-04-03T07:40:41;11.60;;;5.00;;
5847;SDS011;8756;49.29324300;8.70599800;2023-04-03T07:43:12;12.90;;;5.20;;
5847;SDS011;8756;49.29324300;8.70599800;2023-04-03T07:45:38;11.97;;;5.30;;
5847;SDS011;8756;49.29324300;8.70599800;2023-04-03T07:48:04;13.47;;;5.83;;
5847;SDS011;8756;49.29324300;8.70599800;2023-04-03T07:50:30;12.07;;;5.27;;
5847;SDS011;8756;49.29324300;8.70599800;2023-04-03T07:52:57;17.33;;;5.30;;
5847;SDS011;8756;49.29324300;8.70599800;2023-04-03T07:55:23;15.47;;;5.07;;
5847;SDS011;8756;49.29324300;8.70599800;2023-04-03T07:57:50;14.63;;;5.73;;
5847;SDS011;8756;49.29324300;8.70599800;2023-04-03T08:00:16;12.07;;;5.40;;
5847;SDS011;8756;49.29324300;8.70599800;2023-04-03T08:02:43;12.43;;;5.50;;
5847;SDS011;8756;49.29324300;8.70599800;2023-04-03T08:05:09;11.20;;;5.00;;
5847;SDS011;8756;49.29324300;8.70599800;2023-04-03T08:07:36;15.57;;;5.13;;
5847;SDS011;8756;49.29324300;8.70599800;2023-04-03T08:10:03;12.30;;;5.67;;
5847;SDS011;8756;49.29324300;8.70599800;2023-04-03T08:12:29;12.63;;;4.63;;
5847;SDS011;8756;49.29324300;8.70599800;2023-04-03T08:14:56;10.77;;;4.73;;
5847;SDS011;8756;49.29324300;8.70599800;2023-04-03T08:17:24;13.90;;;4.97;;
5847;SDS011;8756;49.29324300;8.70599800;2023-04-03T08:19:51;11.17;;;4.80;;
5847;SDS011;8756;49.29324300;8.70599800;2023-04-03T08:22:16;12.67;;;5.70;;
5847;SDS011;8756;49.29324300;8.70599800;2023-04-03T08:24:42;12.73;;;4.63;;
5847;SDS011;8756;49.29324300;8.70599800;2023-04-03T08:27:08;14.03;;;5.43;;
5847;SDS011;8756;49.29324300;8.70599800;2023-04-03T08:29:33;13.03;;;5.07;;
5847;SDS011;8756;49.29324300;8.70599800;2023-04-03T08:31:59;12.30;;;4.30;;
5847;SDS011;8756;49.29324300;8.70599800;2023-04-03T08:34:25;12.00;;;5.53;;
5847;SDS011;8756;49.29324300;8.70599800;2023-04-03T08:36:51;14.80;;;4.50;;
5847;SDS011;8756;49.29324300;8.70599800;2023-04-03T08:39:17;12.73;;;5.50;;
5847;SDS011;8756;49.29324300;8.70599800;2023-04-03T08:41:43;12.10;;;4.90;;
5847;SDS011;8756;49.29324300;8.70599800;2023-04-03T08:49:54;11.90;;;5.53;;
5847;SDS011;8756;49.29324300;8.70599800;2023-04-03T08:55:34;10.77;;;4.07;;
5847;SDS011;8756;49.29324300;8.70599800;2023-04-03T08:58:28;12.47;;;5.20;;
5847;SDS011;8756;49.29324300;8.70599800;2023-04-03T09:01:14;12.53;;;4.90;;
5847;SDS011;8756;49.29324300;8.70599800;2023-04-03T09:04:09;14.60;;;5.17;;
5847;SDS011;8756;49.29324300;8.70599800;2023-04-03T09:06:42;16.23;;;5.10;;
5847;SDS011;8756;49.29324300;8.70599800;2023-04-03T09:09:37;12.70;;;4.60;;
5847;SDS011;8756;49.29324300;8.70599800;2023-04-03T09:23:02;12.40;;;4.90;;
5847;SDS011;8756;49.29324300;8.70599800;2023-04-03T09:25:48;12.00;;;4.77;;
5847;SDS011;8756;49.29324300;8.70599800;2023-04-03T09:28:16;15.00;;;4.63;;
5847;SDS011;8756;49.29324300;8.70599800;2023-04-03T09:30:42;12.97;;;3.93;;
5847;SDS011;8756;49.29324300;8.70599800;2023-04-03T09:33:08;12.20;;;4.30;;
5847;SDS011;8756;49.29324300;8.70599800;2023-04-03T09:35:35;13.00;;;4.30;;
5847;SDS011;8756;49.29324300;8.70599800;2023-04-03T09:40:41;12.53;;;4.87;;
5847;SDS011;8756;49.29324300;8.70599800;2023-04-03T09:45:45;11.00;;;3.87;;
5847;SDS011;8756;49.29324300;8.70599800;2023-04-03T09:55:54;13.57;;;3.77;;
5847;SDS011;8756;49.29324300;8.70599800;2023-04-03T09:58:23;10.60;;;3.83;;
5847;SDS011;8756;49.29324300;8.70599800;2023-04-03T10:00:59;11.90;;;4.70;;
5847;SDS011;8756;49.29324300;8.70599800;2023-04-03T10:03:32;10.37;;;3.70;;
5847;SDS011;8756;49.29324300;8.70599800;2023-04-03T10:06:04;11.10;;;4.23;;
5847;SDS011;8756;49.29324300;8.70599800;2023-04-03T10:08:59;10.83;;;3.80;;
5847;SDS011;8756;49.29324300;8.70599800;2023-04-03T10:11:27;11.63;;;3.83;;
5847;SDS011;8756;49.29324300;8.70599800;2023-04-03T10:13:55;10.37;;;3.90;;
5847;SDS011;8756;49.29324300;8.70599800;2023-04-03T10:21:56;10.40;;;4.30;;
5847;SDS011;8756;49.29324300;8.70599800;2023-04-03T10:27:35;12.27;;;4.07;;
5847;SDS011;8756;49.29324300;8.70599800;2023-04-03T10:30:29;11.17;;;3.83;;
5847;SDS011;8756;49.29324300;8.70599800;2023-04-03T10:36:25;11.57;;;4.30;;
5847;SDS011;8756;49.29324300;8.70599800;2023-04-03T10:39:01;11.77;;;4.20;;
5847;SDS011;8756;49.29324300;8.70599800;2023-04-03T10:44:42;11.07;;;4.23;;
5847;SDS011;8756;49.29324300;8.70599800;2023-04-03T10:47:34;10.83;;;4.13;;
5847;SDS011;8756;49.29324300;8.70599800;2023-04-03T10:50:23;11.10;;;4.07;;
5847;SDS011;8756;49.29324300;8.70599800;2023-04-03T10:53:30;10.63;;;3.87;;
5847;SDS011;8756;49.29324300;8.70599800;2023-04-03T10:59:32;11.97;;;3.90;;
5847;SDS011;8756;49.29324300;8.70599800;2023-04-03T11:01:59;12.77;;;4.67;;
5847;SDS011;8756;49.29324300;8.70599800;2023-04-03T11:04:40;10.53;;;4.37;;
5847;SDS011;8756;49.29324300;8.70599800;2023-04-03T11:10:13;11.63;;;4.63;;
5847;SDS011;8756;49.29324300;8.70599800;2023-04-03T11:12:58;12.40;;;4.70;;
5847;SDS011;8756;49.29324300;8.70599800;2023-04-03T11:15:37;11.27;;;4.67;;
5847;SDS011;8756;49.29324300;8.70599800;2023-04-03T11:18:09;11.33;;;3.90;;
5847;SDS011;8756;49.29324300;8.70599800;2023-04-03T11:20:47;12.47;;;4.60;;
5847;SDS011;8756;49.29324300;8.70599800;2023-04-03T11:23:24;12.43;;;4.47;;
5847;SDS011;8756;49.29324300;8.70599800;2023-04-03T11:25:53;14.10;;;4.33;;
5847;SDS011;8756;49.29324300;8.70599800;2023-04-03T11:28:24;11.27;;;4.40;;
5847;SDS011;8756;49.29324300;8.70599800;2023-04-03T11:35:58;12.40;;;4.27;;
5847;SDS011;8756;49.29324300;8.70599800;2023-04-03T11:38:43;12.40;;;4.57;;
5847;SDS011;8756;49.29324300;8.70599800;2023-04-03T11:41:12;11.50;;;5.03;;
5847;SDS011;8756;49.29324300;8.70599800;2023-04-03T11:43:55;15.73;;;4.40;;
5847;SDS011;8756;49.29324300;8.70599800;2023-04-03T12:16:22;11.20;;;4.13;;
5847;SDS011;8756;49.29324300;8.70599800;2023-04-03T12:24:24;11.87;;;4.93;;
5847;SDS011;8756;49.29324300;8.70599800;2023-04-03T12:29:38;11.63;;;4.40;;
5847;SDS011;8756;49.29324300;8.70599800;2023-04-03T12:35:31;10.67;;;4.07;;
5847;SDS011;8756;49.29324300;8.70599800;2023-04-03T12:41:21;12.17;;;4.23;;
5847;SDS011;8756;49.29324300;8.70599800;2023-04-03T12:44:31;11.93;;;4.00;;
5847;SDS011;8756;49.29324300;8.70599800;2023-04-03T12:47:29;14.70;;;4.47;;
5847;SDS011;8756;49.29324300;8.70599800;2023-04-03T12:50:01;11.70;;;4.40;;
5847;SDS011;8756;49.29324300;8.70599800;2023-04-03T12:52:40;11.00;;;3.80;;
5847;SDS011;8756;49.29324300;8.70599800;2023-04-03T12:55:15;11.23;;;4.50;;
5847;SDS011;8756;49.29324300;8.70599800;2023-04-03T12:57:43;13.17;;;4.80;;
5847;SDS011;8756;49.29324300;8.70599800;2023-04-03T13:00:25;11.83;;;4.27;;
5847;SDS011;8756;49.29324300;8.70599800;2023-04-03T13:02:58;11.07;;;4.20;;
5847;SDS011;8756;49.29324300;8.70599800;2023-04-03T13:05:25;11.23;;;4.37;;
5847;SDS011;8756;49.29324300;8.70599800;2023-04-03T13:07:57;11.60;;;3.90;;
5847;SDS011;8756;49.29324300;8.70599800;2023-04-03T13:10:28;11.23;;;4.17;;
5847;SDS011;8756;49.29324300;8.70599800;2023-04-03T13:12:55;12.47;;;5.20;;
5847;SDS011;8756;49.29324300;8.70599800;2023-04-03T13:15:26;15.33;;;3.87;;
5847;SDS011;8756;49.29324300;8.70599800;2023-04-03T13:18:11;12.47;;;4.03;;
5847;SDS011;8756;49.29324300;8.70599800;2023-04-03T13:21:37;13.63;;;4.27;;
5847;SDS011;8756;49.29324300;8.70599800;2023-04-03T13:23:51;12.63;;;4.57;;
5847;SDS011;8756;49.29324300;8.70599800;2023-04-03T13:26:22;12.27;;;4.57;;
5847;SDS011;8756;49.29324300;8.70599800;2023-04-03T13:28:56;11.83;;;5.03;;
5847;SDS011;8756;49.29324300;8.70599800;2023-04-03T13:31:29;10.73;;;3.40;;
5847;SDS011;8756;49.29324300;8.70599800;2023-04-03T13:34:11;13.33;;;4.70;;
5847;SDS011;8756;49.29324300;8.70599800;2023-04-03T13:41:38;11.50;;;4.03;;
5847;SDS011;8756;49.29324300;8.70599800;2023-04-03T13:46:51;11.20;;;4.37;;
5847;SDS011;8756;49.29324300;8.70599800;2023-04-03T13:52:19;11.70;;;4.40;;
5847;SDS011;8756;49.29324300;8.70599800;2023-04-03T13:55:18;12.80;;;4.37;;
5847;SDS011;8756;49.29324300;8.70599800;2023-04-03T14:05:51;10.63;;;4.07;;
5847;SDS011;8756;49.29324300;8.70599800;2023-04-03T14:08:18;11.63;;;5.20;;
5847;SDS011;8756;49.29324300;8.70599800;2023-04-03T14:10:44;11.40;;;3.93;;
5847;SDS011;8756;49.29324300;8.70599800;2023-04-03T14:13:12;12.37;;;4.40;;
5847;SDS011;8756;49.29324300;8.70599800;2023-04-03T14:15:40;11.47;;;3.73;;
5847;SDS011;8756;49.29324300;8.70599800;2023-04-03T14:18:10;13.67;;;4.70;;
5847;SDS011;8756;49.29324300;8.70599800;2023-04-03T14:20:38;11.20;;;4.20;;
5847;SDS011;8756;49.29324300;8.70599800;2023-04-03T14:23:03;12.70;;;4.63;;
5847;SDS011;8756;49.29324300;8.70599800;2023-04-03T14:25:29;12.03;;;4.30;;
5847;SDS011;8756;49.29324300;8.70599800;2023-04-03T14:27:55;10.90;;;4.43;;
5847;SDS011;8756;49.29324300;8.70599800;2023-04-03T14:30:32;12.07;;;4.80;;
5847;SDS011;8756;49.29324300;8.70599800;2023-04-03T14:32:59;12.63;;;4.30;;
5847;SDS011;8756;49.29324300;8.70599800;2023-04-03T14:35:26;13.43;;;4.57;;
5847;SDS011;8756;49.29324300;8.70599800;2023-04-03T14:37:52;11.37;;;4.23;;
5847;SDS011;8756;49.29324300;8.70599800;2023-04-03T14:40:20;12.27;;;5.27;;
5847;SDS011;8756;49.29324300;8.70599800;2023-04-03T14:42:51;13.70;;;4.67;;
5847;SDS011;8756;49.29324300;8.70599800;2023-04-03T14:45:20;13.50;;;5.10;;
5847;SDS011;8756;49.29324300;8.70599800;2023-04-03T14:47:48;11.73;;;5.10;;
5847;SDS011;8756;49.29324300;8.70599800;2023-04-03T14:50:23;12.73;;;4.77;;
5847;SDS011;8756;49.29324300;8.70599800;2023-04-03T14:52:53;10.60;;;4.70;;
5847;SDS011;8756;49.29324300;8.70599800;2023-04-03T14:55:22;12.67;;;4.37;;
5847;SDS011;8756;49.29324300;8.70599800;2023-04-03T14:57:49;10.77;;;3.90;;
5847;SDS011;8756;49.29324300;8.70599800;2023-04-03T15:00:17;11.40;;;4.90;;
5847;SDS011;8756;49.29324300;8.70599800;2023-04-03T15:02:45;12.30;;;4.03;;
5847;SDS011;8756;49.29324300;8.70599800;2023-04-03T15:05:13;11.63;;;4.77;;
5847;SDS011;8756;49.29324300;8.70599800;2023-04-03T15:07:41;11.03;;;4.53;;
5847;SDS011;8756;49.29324300;8.70599800;2023-04-03T15:10:19;11.87;;;4.70;;
5847;SDS011;8756;49.29324300;8.70599800;2023-04-03T15:12:48;12.40;;;5.17;;
5847;SDS011;8756;49.29324300;8.70599800;2023-04-03T15:15:15;12.23;;;4.70;;
5847;SDS011;8756;49.29324300;8.70599800;2023-04-03T15:17:44;13.77;;;5.50;;
5847;SDS011;8756;49.29324300;8.70599800;2023-04-03T15:20:14;11.20;;;4.77;;